createdAt,value
2022-12-31T00:00:40.163Z,11.70
2022-12-31T00:04:04.769Z,11.70
2022-12-31T00:07:11.650Z,11.90
2022-12-31T00:10:18.521Z,14.70
2022-12-31T00:13:25.079Z,10.20
2022-12-31T00:16:33.823Z,13.40
2022-12-31T00:19:41.227Z,13.50
2022-12-31T00:22:47.939Z,9.00
2022-12-31T00:25:54.694Z,10.20
2022-12-31T00:29:02.619Z,9.20
2022-12-31T00:32:09.791Z,11.60
2022-12-31T00:35:16.595Z,11.30
2022-12-31T00:38:23.378Z,11.00
2022-12-31T00:41:31.483Z,11.10
2022-12-31T00:44:38.348Z,12.90
2022-12-31T00:47:45.127Z,12.40
2022-12-31T00:50:52.165Z,14.00
2022-12-31T00:53:59.712Z,16.50
2022-12-31T00:57:06.592Z,13.30
2022-12-31T01:00:15.927Z,12.30
2022-12-31T01:03:22.783Z,10.50
2022-12-31T01:06:29.902Z,10.50
2022-12-31T01:09:36.681Z,9.70
2022-12-31T01:12:43.478Z,11.50
2022-12-31T01:15:50.316Z,12.80
2022-12-31T01:18:59.057Z,11.80
2022-12-31T01:22:05.901Z,12.80
2022-12-31T01:25:12.801Z,10.50
2022-12-31T01:28:19.648Z,10.20
2022-12-31T01:31:27.387Z,11.20
2022-12-31T01:34:34.478Z,12.30
2022-12-31T01:37:41.578Z,11.30
2022-12-31T01:40:48.352Z,10.00
2022-12-31T01:43:58.814Z,12.60
2022-12-31T01:47:07.480Z,12.20
2022-12-31T01:50:19.476Z,9.10
2022-12-31T01:53:26.380Z,10.60
2022-12-31T01:56:33.872Z,10.20
2022-12-31T01:59:41.323Z,11.70
2022-12-31T02:02:48.646Z,12.40
2022-12-31T02:05:59.380Z,13.00
2022-12-31T02:09:06.164Z,10.00
2022-12-31T02:12:13.371Z,13.00
2022-12-31T02:15:23.091Z,12.00
2022-12-31T02:18:36.820Z,11.80
2022-12-31T02:21:57.824Z,12.50
2022-12-31T02:25:23.205Z,9.10
2022-12-31T02:28:50.552Z,10.80
2022-12-31T02:32:02.550Z,13.00
2022-12-31T02:35:14.606Z,10.90
2022-12-31T02:38:25.781Z,12.20
2022-12-31T02:41:46.500Z,9.20
2022-12-31T02:44:53.273Z,10.70
2022-12-31T02:48:12.755Z,11.40
2022-12-31T02:54:42.277Z,11.00
2022-12-31T02:57:56.933Z,11.70
2022-12-31T03:01:21.251Z,11.80
2022-12-31T03:04:36.299Z,10.10
2022-12-31T03:07:44.930Z,11.00
2022-12-31T03:10:51.684Z,13.00
2022-12-31T03:13:58.475Z,11.50
2022-12-31T03:17:05.289Z,11.50
2022-12-31T03:20:29.810Z,10.40
2022-12-31T03:23:38.461Z,12.20
2022-12-31T03:26:45.285Z,11.10
2022-12-31T03:29:52.207Z,11.60
2022-12-31T03:32:59.696Z,13.00
2022-12-31T03:36:09.276Z,9.70
2022-12-31T03:42:21.100Z,11.20
2022-12-31T03:45:28.133Z,10.40
2022-12-31T03:48:34.868Z,9.10
2022-12-31T03:51:45.269Z,10.20
2022-12-31T03:54:52.019Z,9.70
2022-12-31T03:57:59.006Z,9.30
2022-12-31T04:01:06.155Z,9.40
2022-12-31T04:04:12.961Z,9.40
2022-12-31T04:07:19.853Z,9.50
2022-12-31T04:10:26.701Z,9.00
2022-12-31T04:13:33.590Z,10.80
2022-12-31T04:16:40.449Z,9.60
2022-12-31T04:19:47.409Z,8.10
2022-12-31T04:22:54.360Z,10.10
2022-12-31T04:26:01.170Z,8.80
2022-12-31T04:29:08.069Z,10.30
2022-12-31T04:32:14.845Z,9.90
2022-12-31T04:35:22.511Z,9.20
2022-12-31T04:38:29.770Z,10.90
2022-12-31T04:41:36.983Z,10.40
2022-12-31T04:44:43.797Z,9.20
2022-12-31T04:47:50.752Z,10.00
2022-12-31T04:50:57.473Z,10.20
2022-12-31T04:54:04.577Z,8.10
2022-12-31T04:57:11.323Z,9.20
2022-12-31T05:00:20.305Z,7.80
2022-12-31T05:03:27.828Z,10.10
2022-12-31T05:06:34.588Z,9.50
2022-12-31T05:09:41.358Z,7.60
2022-12-31T05:12:47.891Z,7.90
2022-12-31T05:15:54.534Z,10.80
2022-12-31T05:19:02.200Z,8.60
2022-12-31T05:22:26.889Z,8.40
2022-12-31T05:25:34.174Z,7.30
2022-12-31T05:28:41.133Z,9.70
2022-12-31T05:31:47.862Z,10.10
2022-12-31T05:34:54.764Z,8.90
2022-12-31T05:38:02.242Z,10.60
2022-12-31T05:41:10.376Z,9.70
2022-12-31T05:44:17.197Z,7.90
2022-12-31T05:47:24.529Z,9.60
2022-12-31T05:50:31.214Z,6.90
2022-12-31T05:53:43.903Z,7.80
2022-12-31T05:56:50.707Z,9.00
2022-12-31T05:59:57.425Z,9.70
2022-12-31T06:03:04.509Z,10.20
2022-12-31T06:06:11.554Z,9.00
2022-12-31T06:09:19.252Z,8.70
2022-12-31T06:12:26.096Z,9.20
2022-12-31T06:15:33.046Z,9.00
2022-12-31T06:18:39.702Z,8.70
2022-12-31T06:21:46.518Z,8.10
2022-12-31T06:24:53.353Z,8.10
2022-12-31T06:28:00.117Z,8.80
2022-12-31T06:31:09.163Z,8.30
2022-12-31T06:34:16.140Z,8.10
2022-12-31T06:37:22.892Z,7.00
2022-12-31T06:40:29.790Z,8.60
2022-12-31T06:43:37.657Z,8.40
2022-12-31T06:46:45.387Z,8.80
2022-12-31T06:49:52.169Z,10.50
2022-12-31T06:52:58.857Z,8.10
2022-12-31T06:56:11.334Z,7.50
2022-12-31T06:59:26.659Z,7.80
2022-12-31T07:03:00.761Z,8.70
2022-12-31T07:06:14.793Z,7.80
2022-12-31T07:09:29.208Z,8.50
2022-12-31T07:12:47.310Z,8.70
2022-12-31T07:16:06.119Z,6.10
2022-12-31T07:19:25.320Z,9.40
2022-12-31T07:22:33.125Z,7.20
2022-12-31T07:25:48.556Z,6.80
2022-12-31T07:29:11.739Z,8.10
2022-12-31T07:32:30.379Z,7.60
2022-12-31T07:35:47.276Z,6.60
2022-12-31T07:39:03.021Z,5.70
2022-12-31T07:42:16.515Z,6.40
2022-12-31T07:45:29.674Z,7.30
2022-12-31T07:48:37.557Z,6.20
2022-12-31T07:51:46.357Z,6.80
2022-12-31T07:54:53.351Z,8.30
2022-12-31T07:58:06.765Z,6.50
2022-12-31T08:01:15.961Z,8.80
2022-12-31T08:04:32.753Z,8.20
2022-12-31T08:07:49.020Z,9.10
2022-12-31T08:11:07.780Z,8.40
2022-12-31T08:14:16.132Z,7.00
2022-12-31T08:17:23.905Z,6.80
2022-12-31T08:20:33.901Z,8.10
2022-12-31T08:23:51.311Z,9.00
2022-12-31T08:27:06.352Z,8.20
2022-12-31T08:30:16.241Z,8.10
2022-12-31T08:33:28.854Z,7.70
2022-12-31T08:36:46.659Z,8.50
2022-12-31T08:40:08.196Z,7.50
2022-12-31T08:43:31.322Z,7.20
2022-12-31T08:46:46.060Z,8.20
2022-12-31T08:49:53.671Z,8.20
2022-12-31T08:53:02.247Z,8.60
2022-12-31T08:56:17.304Z,9.50
2022-12-31T08:59:38.288Z,7.40
2022-12-31T09:03:04.365Z,7.90
2022-12-31T09:06:20.302Z,7.60
2022-12-31T09:09:34.135Z,9.30
2022-12-31T09:12:51.280Z,7.80
2022-12-31T09:16:07.549Z,7.00
2022-12-31T09:19:14.350Z,7.40
2022-12-31T09:22:21.688Z,6.70
2022-12-31T09:25:29.956Z,8.80
2022-12-31T09:28:46.615Z,7.70
2022-12-31T09:31:59.269Z,7.70
2022-12-31T09:35:13.698Z,8.70
2022-12-31T09:38:25.787Z,6.80
2022-12-31T09:42:04.102Z,8.30
2022-12-31T09:45:48.180Z,9.60
2022-12-31T09:49:28.743Z,6.90
2022-12-31T09:52:48.642Z,6.80
2022-12-31T09:56:02.107Z,5.90
2022-12-31T09:59:14.880Z,7.80
2022-12-31T10:02:36.719Z,7.80
2022-12-31T10:06:02.449Z,5.60
2022-12-31T10:09:38.266Z,7.40
2022-12-31T10:13:04.561Z,7.00
2022-12-31T10:16:36.761Z,7.30
2022-12-31T10:20:12.676Z,6.30
2022-12-31T10:24:01.069Z,5.50
2022-12-31T10:27:34.685Z,6.70
2022-12-31T10:30:49.664Z,6.10
2022-12-31T10:34:13.346Z,4.80
2022-12-31T10:37:24.633Z,5.90
2022-12-31T10:40:54.314Z,4.20
2022-12-31T10:44:30.904Z,5.30
2022-12-31T10:48:01.068Z,3.80
2022-12-31T10:51:35.337Z,4.10
2022-12-31T10:55:04.861Z,5.30
2022-12-31T10:58:38.504Z,4.80
2022-12-31T11:01:58.221Z,5.50
2022-12-31T11:05:32.908Z,5.20
2022-12-31T11:09:09.889Z,5.90
2022-12-31T11:12:36.881Z,5.70
2022-12-31T11:16:08.773Z,6.50
2022-12-31T11:19:26.152Z,6.70
2022-12-31T11:22:48.469Z,6.60
2022-12-31T11:26:11.214Z,4.90
2022-12-31T11:29:38.273Z,5.00
2022-12-31T11:33:00.490Z,7.40
2022-12-31T11:36:20.852Z,5.10
2022-12-31T11:39:42.555Z,6.10
2022-12-31T11:42:57.837Z,5.30
2022-12-31T11:46:45.528Z,5.20
2022-12-31T11:50:17.077Z,6.90
2022-12-31T11:53:44.671Z,4.90
2022-12-31T11:57:00.752Z,7.70
2022-12-31T12:00:19.037Z,5.60
2022-12-31T12:03:26.782Z,7.80
2022-12-31T12:06:34.563Z,6.70
2022-12-31T12:09:42.697Z,7.10
2022-12-31T12:12:49.511Z,4.00
2022-12-31T12:16:00.186Z,7.20
2022-12-31T12:19:17.936Z,6.00
2022-12-31T12:22:29.003Z,5.70
2022-12-31T12:25:42.581Z,5.00
2022-12-31T12:28:49.196Z,6.20
2022-12-31T12:32:01.981Z,3.70
2022-12-31T12:35:29.809Z,3.20
2022-12-31T12:38:37.955Z,5.40
2022-12-31T12:41:44.908Z,5.60
2022-12-31T12:45:06.265Z,4.10
2022-12-31T12:48:21.066Z,4.40
2022-12-31T12:51:46.423Z,4.10
2022-12-31T12:55:06.238Z,3.00
2022-12-31T12:58:24.247Z,3.50
2022-12-31T13:01:40.685Z,4.10
2022-12-31T13:05:13.106Z,4.40
2022-12-31T13:08:37.095Z,4.00
2022-12-31T13:11:57.590Z,4.40
2022-12-31T13:15:14.657Z,3.30
2022-12-31T13:18:35.999Z,3.60
2022-12-31T13:21:54.755Z,4.90
2022-12-31T13:25:07.082Z,3.80
2022-12-31T13:28:16.749Z,3.10
2022-12-31T13:31:30.411Z,3.40
2022-12-31T13:34:41.439Z,5.90
2022-12-31T13:37:49.847Z,5.60
2022-12-31T13:41:05.252Z,4.50
2022-12-31T13:44:19.262Z,5.90
2022-12-31T13:47:34.691Z,4.10
2022-12-31T13:50:51.287Z,2.80
2022-12-31T13:54:04.923Z,4.10
2022-12-31T13:57:24.725Z,5.50
2022-12-31T14:00:38.205Z,6.00
2022-12-31T14:03:51.775Z,4.40
2022-12-31T14:07:03.817Z,4.70
2022-12-31T14:10:15.637Z,4.60
2022-12-31T14:13:40.433Z,3.80
2022-12-31T14:16:54.405Z,4.80
2022-12-31T14:20:12.528Z,4.10
2022-12-31T14:23:28.725Z,3.70
2022-12-31T14:26:37.735Z,3.50
2022-12-31T14:29:50.023Z,3.30
2022-12-31T14:33:07.448Z,4.40
2022-12-31T14:36:27.186Z,5.30
2022-12-31T14:39:45.285Z,5.50
2022-12-31T14:43:12.611Z,6.30
2022-12-31T14:46:30.614Z,7.00
2022-12-31T14:49:49.022Z,5.90
2022-12-31T14:53:07.433Z,5.60
2022-12-31T14:59:58.426Z,8.20
2022-12-31T15:03:08.956Z,9.20
2022-12-31T15:06:44.406Z,6.70
2022-12-31T15:10:14.716Z,6.50
2022-12-31T15:13:38.701Z,7.20
2022-12-31T15:16:54.500Z,6.30
2022-12-31T15:20:34.438Z,6.20
2022-12-31T15:23:43.977Z,7.30
2022-12-31T15:26:57.691Z,8.30
2022-12-31T15:30:06.457Z,7.80
2022-12-31T15:33:26.872Z,8.50
2022-12-31T15:36:36.381Z,6.60
2022-12-31T15:39:44.739Z,5.80
2022-12-31T15:42:56.459Z,6.10
2022-12-31T15:46:05.323Z,6.20
2022-12-31T15:49:18.334Z,7.90
2022-12-31T15:52:32.375Z,6.90
2022-12-31T15:55:45.411Z,6.80
2022-12-31T15:58:57.924Z,7.70
2022-12-31T16:02:04.866Z,7.20
2022-12-31T16:05:23.843Z,6.40
2022-12-31T16:08:33.490Z,8.00
2022-12-31T16:11:44.617Z,8.20
2022-12-31T16:14:55.682Z,7.30
2022-12-31T16:18:05.717Z,9.90
2022-12-31T16:21:32.810Z,7.80
2022-12-31T16:25:02.754Z,8.90
2022-12-31T16:28:06.635Z,8.70
2022-12-31T16:31:18.945Z,8.10
2022-12-31T16:34:28.541Z,8.20
2022-12-31T16:37:35.554Z,6.30
2022-12-31T16:40:43.614Z,8.50
2022-12-31T16:43:52.102Z,9.00
2022-12-31T16:47:04.003Z,9.90
2022-12-31T16:50:18.371Z,9.40
2022-12-31T16:53:27.951Z,10.30
2022-12-31T16:56:38.230Z,12.20
2022-12-31T16:59:48.243Z,10.90
2022-12-31T17:03:04.410Z,10.80
2022-12-31T17:06:17.408Z,8.90
2022-12-31T17:09:38.118Z,9.90
2022-12-31T17:16:19.940Z,11.30
2022-12-31T17:19:45.241Z,12.10
2022-12-31T17:22:54.569Z,11.10
2022-12-31T17:26:08.591Z,12.50
2022-12-31T17:29:26.195Z,12.20
2022-12-31T17:32:38.894Z,9.80
2022-12-31T17:35:47.587Z,9.80
2022-12-31T17:38:54.451Z,9.80
2022-12-31T17:42:01.230Z,11.90
2022-12-31T17:45:10.467Z,13.60
2022-12-31T17:51:24.380Z,9.90
2022-12-31T17:54:31.757Z,13.80
2022-12-31T17:57:38.821Z,12.20
2022-12-31T18:00:45.736Z,12.40
2022-12-31T18:03:52.732Z,11.20
2022-12-31T18:06:59.410Z,14.80
2022-12-31T18:10:06.811Z,14.70
2022-12-31T18:13:18.535Z,13.50
2022-12-31T18:16:25.329Z,11.70
2022-12-31T18:20:03.514Z,11.60
2022-12-31T18:22:59.082Z,12.60
2022-12-31T18:26:06.060Z,8.60
2022-12-31T18:29:19.926Z,11.30
2022-12-31T18:32:29.818Z,10.30
2022-12-31T18:39:04.748Z,9.40
2022-12-31T18:42:14.378Z,10.40
2022-12-31T18:45:23.074Z,10.20
2022-12-31T18:48:29.942Z,10.00
2022-12-31T18:51:37.059Z,8.00
2022-12-31T18:54:44.052Z,11.20
2022-12-31T18:57:51.131Z,10.00
2022-12-31T19:00:58.058Z,10.90
2022-12-31T19:04:12.177Z,11.40
2022-12-31T19:07:20.430Z,13.50
2022-12-31T19:10:29.041Z,12.50
2022-12-31T19:13:35.702Z,12.10
2022-12-31T19:16:42.532Z,9.50
2022-12-31T19:19:49.512Z,11.40
2022-12-31T19:22:56.623Z,8.40
2022-12-31T19:26:03.316Z,10.20
2022-12-31T19:29:16.874Z,10.40
2022-12-31T19:32:23.659Z,8.40
2022-12-31T19:35:30.571Z,10.40
2022-12-31T19:38:37.308Z,10.70
2022-12-31T19:41:46.104Z,8.00
2022-12-31T19:44:53.003Z,9.50
2022-12-31T19:47:59.791Z,8.90
2022-12-31T19:51:11.485Z,8.10
2022-12-31T19:54:18.218Z,10.30
2022-12-31T19:57:24.957Z,11.60
2022-12-31T20:00:31.781Z,8.60
2022-12-31T20:03:38.471Z,8.90
2022-12-31T20:06:45.305Z,9.10
2022-12-31T20:09:52.522Z,7.90
2022-12-31T20:12:59.414Z,10.00
2022-12-31T20:16:09.875Z,8.50
2022-12-31T20:19:17.314Z,9.00
2022-12-31T20:22:24.089Z,8.50
2022-12-31T20:25:30.825Z,8.10
2022-12-31T20:28:38.281Z,7.00
2022-12-31T20:31:45.203Z,11.00
2022-12-31T20:34:51.964Z,8.00
2022-12-31T20:37:59.228Z,9.00
2022-12-31T20:41:10.025Z,7.80
2022-12-31T20:44:17.037Z,5.80
2022-12-31T20:47:27.387Z,7.20
2022-12-31T20:50:33.968Z,7.40
2022-12-31T20:53:40.681Z,5.40
2022-12-31T20:56:47.479Z,9.20
2022-12-31T20:59:54.217Z,7.80
2022-12-31T21:03:14.325Z,8.20
2022-12-31T21:06:27.803Z,9.80
2022-12-31T21:09:34.653Z,7.80
2022-12-31T21:12:44.474Z,7.20
2022-12-31T21:15:51.727Z,6.50
2022-12-31T21:18:58.953Z,6.60
2022-12-31T21:22:05.849Z,9.10
2022-12-31T21:25:13.400Z,6.90
2022-12-31T21:28:20.167Z,8.80
2022-12-31T21:31:27.084Z,6.40
2022-12-31T21:34:33.993Z,5.10
2022-12-31T21:37:58.032Z,5.70
2022-12-31T21:41:08.397Z,7.30
2022-12-31T21:44:15.561Z,9.10
2022-12-31T21:47:47.413Z,6.70
2022-12-31T21:50:56.543Z,7.30
2022-12-31T21:54:03.379Z,6.20
2022-12-31T21:57:10.443Z,6.50
2022-12-31T22:00:43.831Z,6.60
2022-12-31T22:03:51.369Z,5.50
2022-12-31T22:06:58.114Z,8.20
2022-12-31T22:10:04.848Z,12.10
2022-12-31T22:13:11.694Z,9.20
2022-12-31T22:16:20.279Z,7.60
2022-12-31T22:19:27.256Z,6.00
2022-12-31T22:22:34.236Z,7.90
2022-12-31T22:25:41.161Z,6.10
2022-12-31T22:28:49.166Z,7.80
2022-12-31T22:32:01.019Z,6.70
2022-12-31T22:35:09.463Z,7.90
2022-12-31T22:38:16.108Z,8.00
2022-12-31T22:41:24.601Z,8.60
2022-12-31T22:44:31.472Z,8.50
2022-12-31T22:47:38.403Z,8.70
2022-12-31T22:50:45.163Z,6.50
2022-12-31T22:53:51.895Z,6.80
2022-12-31T22:56:58.569Z,7.80
2022-12-31T23:00:10.061Z,8.00
2022-12-31T23:03:17.033Z,13.80
2022-12-31T23:06:26.042Z,19.10
2022-12-31T23:09:50.585Z,6.00
2022-12-31T23:12:57.434Z,9.00
2022-12-31T23:16:22.023Z,14.50
2022-12-31T23:19:46.317Z,14.90
2022-12-31T23:23:09.850Z,15.90
2022-12-31T23:26:16.699Z,16.30
2022-12-31T23:29:24.018Z,16.20
2022-12-31T23:32:30.905Z,15.90
2022-12-31T23:35:37.757Z,16.70
2022-12-31T23:38:44.568Z,14.30
2022-12-31T23:41:51.218Z,16.50
2022-12-31T23:44:57.933Z,14.80
2022-12-31T23:48:05.196Z,15.00
2022-12-31T23:51:11.907Z,14.30
2022-12-31T23:54:18.785Z,12.00
2022-12-31T23:57:25.545Z,11.10
